Time;durP1;ratioP1;P1;durP2;ratioP2;P2;SDS_P1;SDS_P2;PMS_P1;PMS_P2;Temp;Humidity;BMP_temperature;BMP_pressure;BME280_temperature;BME280_humidity;BME280_pressure;Samples;Min_cycle;Max_cycle;Signal;HPM_P1;HPM_P2
2022/07/30 00:00:15;;;;;;;3.45;2.78;;;24.30;58.50;;;;;;4998464;28;20204;-74
2022/07/30 00:02:42;;;;;;;3.10;2.80;;;24.30;58.40;;;;;;4998330;28;20207;-74
2022/07/30 00:05:11;;;;;;;2.92;2.60;;;24.20;58.30;;;;;;4998509;28;20292;-74
2022/07/30 00:07:38;;;;;;;3.03;2.75;;;24.20;58.30;;;;;;4998565;28;20213;-74
2022/07/30 00:10:06;;;;;;;2.95;2.75;;;24.20;58.30;;;;;;4998312;28;20201;-73
2022/07/30 00:12:33;;;;;;;3.30;3.00;;;24.20;58.30;;;;;;4997594;28;20601;-74
2022/07/30 00:15:00;;;;;;;2.72;2.53;;;24.20;58.30;;;;;;4998452;28;20196;-74
2022/07/30 00:17:27;;;;;;;3.58;2.60;;;24.20;58.30;;;;;;4998176;28;20220;-74
2022/07/30 00:19:54;;;;;;;3.08;2.85;;;24.20;58.30;;;;;;4998210;28;20291;-74
2022/07/30 00:22:23;;;;;;;2.83;2.63;;;24.20;58.30;;;;;;4999110;28;20224;-73
2022/07/30 00:24:49;;;;;;;2.80;2.58;;;24.20;58.30;;;;;;4997886;28;20268;-74
2022/07/30 00:27:17;;;;;;;3.35;3.05;;;24.20;58.30;;;;;;4997887;28;20225;-74
2022/07/30 00:29:44;;;;;;;3.08;2.88;;;24.20;58.30;;;;;;4997923;28;20200;-74
2022/07/30 00:32:11;;;;;;;3.00;2.80;;;24.20;58.30;;;;;;4997865;28;20235;-74
2022/07/30 00:34:39;;;;;;;3.03;2.83;;;24.20;58.30;;;;;;4997806;28;20697;-74
2022/07/30 00:37:05;;;;;;;3.10;2.90;;;24.20;58.40;;;;;;4997841;28;20221;-74
2022/07/30 00:39:34;;;;;;;3.10;2.80;;;24.10;58.30;;;;;;5015276;28;20307;-73
2022/07/30 00:42:02;;;;;;;3.15;2.85;;;24.10;58.30;;;;;;4998393;28;20258;-74
2022/07/30 00:44:31;;;;;;;3.03;2.83;;;24.10;58.30;;;;;;4997484;28;20686;-74
2022/07/30 00:46:57;;;;;;;3.03;2.83;;;24.10;58.30;;;;;;4997693;28;20225;-74
2022/07/30 00:49:25;;;;;;;2.90;2.70;;;24.10;58.30;;;;;;4981705;28;20201;-74
2022/07/30 00:51:52;;;;;;;3.45;2.78;;;24.10;58.30;;;;;;4997834;28;20235;-74
2022/07/30 00:54:20;;;;;;;2.80;2.60;;;24.10;58.30;;;;;;4997635;28;20659;-74
2022/07/30 00:56:48;;;;;;;3.00;2.70;;;24.10;58.30;;;;;;4997568;28;20236;-74
2022/07/30 00:59:16;;;;;;;2.75;2.40;;;24.10;58.30;;;;;;4998050;28;20200;-74
2022/07/30 01:01:42;;;;;;;3.00;2.80;;;24.00;58.20;;;;;;4997413;28;20201;-74
2022/07/30 01:04:11;;;;;;;3.25;2.97;;;24.10;58.30;;;;;;4997250;28;20243;-74
2022/07/30 01:06:38;;;;;;;3.17;2.83;;;24.10;58.30;;;;;;4997420;28;20695;-74
2022/07/30 01:09:06;;;;;;;2.83;2.55;;;24.10;58.20;;;;;;4997113;28;20593;-74
2022/07/30 01:11:35;;;;;;;3.25;2.80;;;24.00;58.10;;;;;;4997051;28;20201;-74
2022/07/30 01:14:04;;;;;;;2.75;2.55;;;24.00;58.10;;;;;;4997037;28;20287;-73
2022/07/30 01:16:31;;;;;;;3.00;2.80;;;24.00;58.10;;;;;;4997067;28;20660;-74
2022/07/30 01:21:45;;;;;;;3.13;2.83;;;24.00;58.10;;;;;;4997017;28;20192;-74
2022/07/30 01:24:18;;;;;;;2.67;2.47;;;24.00;58.10;;;;;;4996069;28;20220;-74
2022/07/30 01:26:47;;;;;;;2.83;2.63;;;24.00;58.10;;;;;;4997053;28;20315;-74
2022/07/30 01:29:15;;;;;;;3.00;2.80;;;24.00;58.00;;;;;;4996811;28;20247;-74
2022/07/30 01:31:42;;;;;;;3.03;2.83;;;24.00;58.00;;;;;;4996912;28;20184;-73
2022/07/30 01:34:11;;;;;;;2.97;2.78;;;24.00;58.00;;;;;;4996920;28;20193;-74
2022/07/30 01:36:39;;;;;;;2.75;2.50;;;24.00;58.00;;;;;;4997112;28;20254;-74
2022/07/30 01:39:05;;;;;;;2.80;2.60;;;24.00;57.90;;;;;;4996823;28;20201;-74
2022/07/30 01:41:32;;;;;;;2.78;2.58;;;24.00;58.60;;;;;;4996898;28;20220;-74
2022/07/30 01:44:01;;;;;;;3.00;2.80;;;24.00;57.90;;;;;;4996660;28;20675;-74
2022/07/30 01:46:28;;;;;;;2.53;2.40;;;24.00;57.80;;;;;;4996809;28;20217;-74
2022/07/30 01:48:56;;;;;;;2.70;2.50;;;24.00;57.80;;;;;;4996871;28;20204;-74
2022/07/30 01:51:24;;;;;;;3.03;2.83;;;24.00;57.80;;;;;;4997675;28;20200;-74
2022/07/30 01:53:52;;;;;;;2.90;2.45;;;24.00;57.80;;;;;;4997623;28;20200;-74
2022/07/30 01:56:21;;;;;;;2.45;2.25;;;24.00;57.80;;;;;;4996513;28;20263;-74
2022/07/30 01:58:48;;;;;;;2.50;2.30;;;24.00;57.90;;;;;;4996609;28;20200;-73
2022/07/30 02:01:25;;;;;;;2.95;2.63;;;24.00;57.80;;;;;;4996553;28;20196;-73
2022/07/30 02:03:57;;;;;;;2.50;2.40;;;24.00;57.90;;;;;;4996504;28;20303;-74
2022/07/30 02:06:31;;;;;;;3.17;2.70;;;24.00;57.80;;;;;;4997171;28;20220;-74
2022/07/30 02:09:04;;;;;;;2.90;2.70;;;24.00;57.80;;;;;;4996632;28;20192;-74
2022/07/30 02:14:19;;;;;;;3.10;2.90;;;24.00;57.80;;;;;;4996394;28;20184;-74
2022/07/30 02:16:49;;;;;;;2.92;2.72;;;24.00;57.90;;;;;;4996783;28;20240;-74
2022/07/30 02:19:16;;;;;;;2.55;2.45;;;23.90;57.90;;;;;;4996468;28;20296;-73
2022/07/30 02:21:45;;;;;;;2.38;2.28;;;24.00;57.90;;;;;;4996177;28;20211;-74
2022/07/30 02:24:14;;;;;;;3.10;2.80;;;23.90;57.90;;;;;;4996183;28;20263;-74
2022/07/30 02:26:42;;;;;;;3.60;2.70;;;23.90;57.90;;;;;;4996280;28;20223;-74
2022/07/30 02:29:11;;;;;;;3.80;2.80;;;23.90;57.90;;;;;;4996213;28;20201;-74
2022/07/30 02:31:38;;;;;;;2.67;2.47;;;23.90;57.90;;;;;;4996689;28;20193;-74
2022/07/30 02:34:06;;;;;;;2.90;2.70;;;23.90;57.90;;;;;;4980093;28;20205;-74
2022/07/30 02:36:33;;;;;;;2.67;2.47;;;23.90;57.90;;;;;;4999484;28;20307;-74
2022/07/30 02:39:00;;;;;;;3.30;2.78;;;23.90;57.90;;;;;;4999927;28;20611;-73
2022/07/30 02:41:28;;;;;;;3.08;2.75;;;23.90;57.90;;;;;;5000050;28;20262;-74
2022/07/30 02:43:55;;;;;;;2.95;2.70;;;23.90;57.90;;;;;;4999999;28;20303;-73
2022/07/30 02:46:23;;;;;;;2.97;2.67;;;23.90;57.90;;;;;;5000728;28;20243;-74
2022/07/30 02:49:10;;;;;;;2.70;2.50;;;23.80;57.80;;;;;;5017972;28;20192;-74
2022/07/30 02:51:39;;;;;;;3.00;2.80;;;23.90;57.90;;;;;;5000096;28;20288;-74
2022/07/30 02:54:06;;;;;;;3.20;2.90;;;23.90;57.90;;;;;;4999862;28;20201;-73
2022/07/30 02:56:33;;;;;;;3.10;2.90;;;23.80;57.80;;;;;;4999447;28;20223;-74
2022/07/30 02:59:01;;;;;;;2.80;2.60;;;23.80;57.80;;;;;;4999529;28;20658;-74
2022/07/30 03:01:28;;;;;;;2.70;2.50;;;23.80;57.90;;;;;;4999729;28;20212;-74
2022/07/30 03:03:55;;;;;;;2.92;2.70;;;23.80;57.80;;;;;;4999445;28;20263;-73
2022/07/30 03:06:24;;;;;;;2.83;2.63;;;23.80;57.90;;;;;;4999914;28;20219;-73
2022/07/30 03:08:52;;;;;;;3.30;2.95;;;23.80;57.90;;;;;;4999572;28;20247;-74
2022/07/30 03:11:20;;;;;;;2.90;2.70;;;23.80;57.90;;;;;;4999409;28;20239;-74
2022/07/30 03:13:47;;;;;;;2.75;2.55;;;23.80;57.90;;;;;;4999368;28;20196;-74
2022/07/30 03:16:14;;;;;;;3.33;3.03;;;23.80;58.60;;;;;;4999336;28;20224;-74
2022/07/30 03:18:41;;;;;;;3.80;2.97;;;23.80;57.90;;;;;;4999564;28;20563;-74
2022/07/30 03:21:10;;;;;;;2.65;2.53;;;23.80;57.90;;;;;;4999232;28;20208;-74
2022/07/30 03:23:40;;;;;;;2.97;2.75;;;23.80;57.90;;;;;;4999284;28;20620;-74
2022/07/30 03:26:08;;;;;;;2.92;2.60;;;23.80;57.90;;;;;;4999051;28;20303;-73
2022/07/30 03:28:38;;;;;;;2.90;2.70;;;23.80;57.60;;;;;;4999263;28;20251;-74
2022/07/30 03:31:05;;;;;;;3.05;2.67;;;23.80;57.60;;;;;;4999106;28;20207;-73
2022/07/30 03:33:32;;;;;;;2.60;2.40;;;23.90;57.70;;;;;;4999121;28;20197;-74
2022/07/30 03:36:00;;;;;;;3.40;3.10;;;23.90;57.50;;;;;;4998909;28;20239;-74
2022/07/30 03:38:27;;;;;;;3.47;2.78;;;24.00;57.50;;;;;;4999800;28;20193;-74
2022/07/30 03:40:56;;;;;;;3.17;2.65;;;24.00;57.40;;;;;;4998947;28;20579;-74
2022/07/30 03:43:24;;;;;;;3.10;2.90;;;24.00;57.20;;;;;;4998943;28;20197;-74
2022/07/30 03:45:52;;;;;;;3.58;2.92;;;24.00;57.20;;;;;;4998790;28;20275;-74
2022/07/30 03:48:21;;;;;;;2.88;2.60;;;24.00;57.20;;;;;;4998628;28;20200;-74
2022/07/30 03:50:48;;;;;;;2.78;2.45;;;24.00;57.10;;;;;;4998836;28;20695;-73
2022/07/30 03:53:15;;;;;;;2.72;2.53;;;24.00;57.00;;;;;;4998777;28;20200;-74
2022/07/30 03:56:04;;;;;;;2.90;2.65;;;24.00;57.00;;;;;;5015652;28;20634;-74
2022/07/30 03:58:54;;;;;;;2.88;2.67;;;24.00;57.10;;;;;;5005342;28;20197;-74
2022/07/30 04:01:24;;;;;;;3.33;3.08;;;24.00;57.00;;;;;;4998926;28;20225;-74
2022/07/30 04:03:55;;;;;;;4.35;2.90;;;24.00;57.10;;;;;;4999182;28;20201;-74
2022/07/30 04:06:22;;;;;;;3.80;2.60;;;24.00;57.00;;;;;;4998537;28;20270;-74
2022/07/30 04:08:50;;;;;;;2.85;2.50;;;24.00;57.00;;;;;;4998335;28;20200;-74
2022/07/30 04:11:18;;;;;;;3.08;2.80;;;24.00;57.00;;;;;;4998294;28;20243;-74
2022/07/30 04:13:58;;;;;;;4.18;2.95;;;23.90;56.90;;;;;;4998447;28;20243;-73
2022/07/30 04:16:29;;;;;;;3.20;2.90;;;23.90;56.90;;;;;;4998415;28;20266;-74
2022/07/30 04:18:56;;;;;;;3.00;2.75;;;23.90;57.50;;;;;;4998420;28;20196;-74
2022/07/30 04:21:23;;;;;;;2.92;2.65;;;23.90;56.90;;;;;;4998423;28;20193;-74
2022/07/30 04:23:51;;;;;;;3.28;2.97;;;23.90;56.90;;;;;;4998249;28;20205;-73
2022/07/30 04:26:19;;;;;;;3.10;2.90;;;23.90;56.90;;;;;;4998470;28;20220;-74
2022/07/30 04:28:46;;;;;;;2.78;2.58;;;23.90;57.00;;;;;;4998672;28;20283;-74
2022/07/30 04:31:13;;;;;;;2.83;2.63;;;23.90;56.90;;;;;;5000261;28;20231;-73
2022/07/30 04:33:41;;;;;;;3.47;2.65;;;23.90;56.90;;;;;;4999228;28;20284;-73
2022/07/30 04:36:15;;;;;;;2.83;2.63;;;23.90;56.90;;;;;;4984174;28;20209;-73
2022/07/30 04:38:42;;;;;;;2.85;2.65;;;23.80;56.80;;;;;;5000135;28;20288;-74
2022/07/30 04:41:10;;;;;;;2.97;2.78;;;23.90;56.90;;;;;;5021695;28;20191;-74
2022/07/30 04:43:59;;;;;;;2.90;2.70;;;23.80;56.70;;;;;;5039718;28;20177;-74
2022/07/30 04:46:27;;;;;;;3.40;2.55;;;23.90;56.80;;;;;;5000553;28;20245;-74
2022/07/30 04:48:54;;;;;;;3.60;2.80;;;23.90;56.80;;;;;;4998394;28;20207;-74
2022/07/30 04:51:23;;;;;;;4.00;2.67;;;23.80;56.70;;;;;;4998437;28;20227;-74
2022/07/30 04:53:51;;;;;;;3.25;2.53;;;23.90;56.50;;;;;;4997560;28;20239;-74
2022/07/30 04:56:19;;;;;;;2.53;2.33;;;24.00;56.30;;;;;;4998262;28;20223;-74
2022/07/30 04:58:46;;;;;;;3.10;2.80;;;24.20;55.90;;;;;;4997371;28;20200;-74
2022/07/30 05:01:18;;;;;;;2.92;2.53;;;24.30;55.40;;;;;;4997325;28;20228;-73
2022/07/30 05:03:46;;;;;;;2.80;2.47;;;24.60;55.10;;;;;;4997602;28;20227;-74
2022/07/30 05:06:14;;;;;;;2.90;2.60;;;24.70;54.40;;;;;;4997823;28;20299;-74
2022/07/30 05:08:41;;;;;;;2.45;2.25;;;24.90;54.10;;;;;;4997251;28;20227;-73
2022/07/30 05:11:11;;;;;;;2.50;2.30;;;25.10;53.50;;;;;;4997457;28;20192;-74
2022/07/30 05:13:41;;;;;;;2.80;2.60;;;25.30;53.20;;;;;;4981307;28;20757;-74
2022/07/30 05:16:10;;;;;;;3.03;2.72;;;25.40;52.70;;;;;;4997536;28;20596;-73
2022/07/30 05:18:38;;;;;;;2.72;2.53;;;25.60;52.40;;;;;;4981160;28;20204;-74
2022/07/30 05:21:06;;;;;;;3.00;2.70;;;25.70;52.00;;;;;;4997178;28;20199;-74
2022/07/30 05:23:38;;;;;;;4.13;2.35;;;25.90;51.80;;;;;;4982250;28;20185;-74
2022/07/30 05:26:20;;;;;;;2.75;2.50;;;26.00;51.40;;;;;;4997055;28;20224;-74
2022/07/30 05:28:49;;;;;;;2.80;2.60;;;26.20;51.20;;;;;;4998097;28;20204;-74
2022/07/30 05:31:19;;;;;;;3.08;2.88;;;26.20;50.80;;;;;;4997238;28;20228;-74
2022/07/30 05:33:55;;;;;;;2.58;2.38;;;26.30;50.50;;;;;;4997847;28;20189;-74
2022/07/30 05:36:25;;;;;;;2.72;2.33;;;26.50;50.50;;;;;;4997367;28;20300;-74
2022/07/30 05:38:54;;;;;;;2.40;2.20;;;26.50;50.10;;;;;;4997300;28;20196;-74
2022/07/30 05:41:32;;;;;;;3.00;2.33;;;26.60;49.90;;;;;;4997601;28;20746;-74
2022/07/30 05:44:07;;;;;;;2.85;2.65;;;26.70;49.70;;;;;;4997144;28;20255;-74
2022/07/30 05:46:34;;;;;;;2.83;2.20;;;26.80;49.50;;;;;;4996869;28;20224;-74
2022/07/30 05:49:02;;;;;;;3.42;2.40;;;26.90;49.30;;;;;;4981254;28;20622;-74
2022/07/30 05:51:29;;;;;;;2.42;2.22;;;27.00;49.10;;;;;;4996520;28;20206;-74
2022/07/30 05:53:56;;;;;;;3.47;2.40;;;27.10;48.90;;;;;;4996631;28;20615;-74
2022/07/30 05:56:39;;;;;;;4.35;2.33;;;27.20;48.80;;;;;;4983265;28;20209;-74
2022/07/30 05:59:19;;;;;;;2.40;2.20;;;27.20;48.50;;;;;;4996690;28;20193;-74
2022/07/30 06:02:07;;;;;;;3.85;2.42;;;27.30;48.30;;;;;;4996621;28;20627;-74
2022/07/30 06:04:59;;;;;;;2.53;2.33;;;27.40;48.10;;;;;;5003358;28;20216;-74
2022/07/30 06:07:27;;;;;;;2.55;2.35;;;27.50;47.90;;;;;;4996514;28;20274;-74
2022/07/30 06:09:58;;;;;;;2.50;2.30;;;27.60;47.70;;;;;;4998662;28;20251;-74
2022/07/30 06:12:27;;;;;;;2.50;2.30;;;27.70;47.70;;;;;;5003794;28;20268;-74
2022/07/30 06:14:54;;;;;;;2.63;2.42;;;27.70;47.60;;;;;;5002875;28;20201;-74
2022/07/30 06:17:27;;;;;;;2.72;2.53;;;27.70;47.60;;;;;;5002801;28;20306;-74
2022/07/30 06:20:21;;;;;;;2.53;2.33;;;27.80;48.10;;;;;;5018596;28;20240;-74
2022/07/30 06:23:09;;;;;;;2.55;2.35;;;27.90;47.30;;;;;;5020392;28;20684;-74
2022/07/30 06:25:48;;;;;;;2.70;2.50;;;28.00;47.20;;;;;;5002958;28;20224;-74
2022/07/30 06:28:16;;;;;;;2.50;2.30;;;28.00;47.10;;;;;;5003018;28;20199;-74
2022/07/30 06:30:44;;;;;;;2.72;2.33;;;28.10;47.10;;;;;;5003389;28;20618;-74
2022/07/30 06:33:12;;;;;;;2.75;2.50;;;28.10;47.00;;;;;;5003185;28;20646;-74
2022/07/30 06:35:40;;;;;;;2.33;2.22;;;28.10;46.80;;;;;;5002786;28;20654;-74
2022/07/30 06:38:07;;;;;;;3.38;2.10;;;28.20;46.80;;;;;;5003184;28;20211;-74
2022/07/30 06:40:37;;;;;;;2.42;2.17;;;28.30;46.80;;;;;;5002455;28;20207;-74
2022/07/30 06:43:14;;;;;;;2.58;2.22;;;28.20;46.60;;;;;;5002862;28;20680;-74
2022/07/30 06:45:51;;;;;;;2.40;2.20;;;28.30;46.60;;;;;;5002530;28;20223;-74
2022/07/30 06:48:30;;;;;;;2.30;2.10;;;28.30;46.60;;;;;;5002848;28;20196;-74
2022/07/30 06:50:59;;;;;;;2.45;2.25;;;28.40;46.60;;;;;;5002557;28;20238;-74
2022/07/30 06:53:28;;;;;;;3.13;2.60;;;28.50;46.60;;;;;;5002901;28;20204;-74
2022/07/30 06:56:13;;;;;;;2.35;2.15;;;28.50;46.40;;;;;;5020368;28;20212;-74
2022/07/30 06:58:46;;;;;;;2.30;2.20;;;28.50;46.40;;;;;;5003383;28;20199;-74
2022/07/30 07:01:32;;;;;;;2.60;2.40;;;28.60;46.30;;;;;;5020544;28;20227;-74
2022/07/30 07:03:59;;;;;;;2.45;2.25;;;28.70;46.20;;;;;;5003382;28;20215;-74
2022/07/30 07:06:28;;;;;;;2.75;2.55;;;28.70;46.20;;;;;;5002324;28;20277;-74
2022/07/30 07:08:55;;;;;;;4.32;2.40;;;28.80;46.10;;;;;;5002433;28;20190;-74
2022/07/30 07:11:30;;;;;;;2.85;2.30;;;28.80;46.00;;;;;;5003660;28;20187;-74
2022/07/30 07:14:01;;;;;;;2.80;2.60;;;28.90;45.90;;;;;;5003046;28;20226;-74
2022/07/30 07:16:33;;;;;;;2.53;2.33;;;28.90;45.90;;;;;;5002912;28;20277;-74
2022/07/30 07:19:15;;;;;;;2.55;2.35;;;29.00;45.80;;;;;;5002638;28;20291;-74
2022/07/30 07:21:43;;;;;;;2.50;2.30;;;29.00;45.60;;;;;;5000733;28;20196;-74
2022/07/30 07:24:10;;;;;;;2.38;2.20;;;29.10;45.50;;;;;;4999319;28;20254;-74
2022/07/30 07:26:56;;;;;;;3.45;2.40;;;29.10;45.40;;;;;;4999283;28;20228;-74
2022/07/30 07:29:23;;;;;;;2.90;2.60;;;29.20;45.40;;;;;;4999044;28;20666;-74
2022/07/30 07:31:50;;;;;;;2.33;2.15;;;29.20;45.20;;;;;;4998956;28;20647;-74
2022/07/30 07:34:17;;;;;;;2.58;2.35;;;29.20;45.10;;;;;;4998978;28;20651;-74
2022/07/30 07:36:45;;;;;;;2.40;2.20;;;29.30;45.00;;;;;;4999050;28;20266;-75
2022/07/30 07:39:12;;;;;;;2.45;2.25;;;29.30;44.90;;;;;;4999417;28;20200;-74
2022/07/30 07:41:42;;;;;;;2.50;2.30;;;29.40;44.80;;;;;;4999179;28;20204;-74
2022/07/30 07:44:10;;;;;;;2.45;2.25;;;29.40;44.70;;;;;;4999388;28;20196;-74
2022/07/30 07:46:37;;;;;;;3.60;2.33;;;29.40;44.50;;;;;;4998660;28;20224;-74
2022/07/30 07:49:05;;;;;;;2.40;2.20;;;29.50;44.40;;;;;;4998748;28;20279;-74
2022/07/30 07:51:37;;;;;;;2.40;2.20;;;29.50;44.20;;;;;;4998830;28;20242;-74
2022/07/30 07:54:06;;;;;;;2.20;2.10;;;29.60;44.20;;;;;;4998664;28;20742;-74
2022/07/30 07:56:34;;;;;;;2.78;2.20;;;29.60;44.00;;;;;;4998736;28;20218;-74
2022/07/30 07:59:01;;;;;;;2.78;2.50;;;29.70;44.00;;;;;;4982701;28;20249;-74
2022/07/30 08:01:29;;;;;;;2.47;2.28;;;29.70;44.10;;;;;;4998872;28;20192;-74
2022/07/30 08:04:14;;;;;;;2.78;2.33;;;29.80;43.80;;;;;;5016532;28;20187;-74
2022/07/30 08:07:00;;;;;;;2.53;2.33;;;29.80;43.60;;;;;;5016300;28;20231;-74
2022/07/30 08:09:47;;;;;;;3.20;2.40;;;29.80;43.50;;;;;;5016426;28;20203;-74
2022/07/30 08:12:38;;;;;;;2.60;2.40;;;29.80;43.30;;;;;;4988300;28;20200;-74
2022/07/30 08:15:28;;;;;;;3.30;2.40;;;29.90;43.30;;;;;;5015689;28;20246;-74
2022/07/30 08:18:18;;;;;;;2.38;2.17;;;29.90;43.20;;;;;;4999689;28;20224;-74
2022/07/30 08:20:53;;;;;;;3.97;2.35;;;29.90;43.20;;;;;;4998322;28;20203;-74
2022/07/30 08:23:25;;;;;;;2.40;2.20;;;29.90;43.20;;;;;;4998837;28;20215;-74
2022/07/30 08:25:54;;;;;;;2.00;1.90;;;29.90;43.10;;;;;;4998115;28;20227;-74
2022/07/30 08:28:21;;;;;;;2.67;2.30;;;29.90;43.00;;;;;;4998130;28;20211;-74
2022/07/30 08:30:49;;;;;;;2.45;2.05;;;29.90;43.00;;;;;;5015985;28;20195;-74
2022/07/30 08:33:16;;;;;;;3.05;2.17;;;29.90;43.00;;;;;;4997693;28;20220;-74
2022/07/30 08:35:43;;;;;;;2.28;2.00;;;29.90;43.20;;;;;;4998361;28;20188;-74
2022/07/30 08:38:10;;;;;;;2.50;2.30;;;29.80;43.20;;;;;;4999083;28;20561;-74
2022/07/30 08:40:38;;;;;;;2.50;2.30;;;29.80;43.20;;;;;;4998043;28;20250;-74
2022/07/30 08:43:07;;;;;;;2.50;2.30;;;29.80;43.10;;;;;;4997846;28;20197;-74
2022/07/30 08:45:36;;;;;;;2.28;2.13;;;29.80;43.20;;;;;;4983007;28;20196;-74
2022/07/30 08:48:15;;;;;;;2.22;2.13;;;29.80;43.20;;;;;;4998354;28;20195;-74
2022/07/30 08:50:44;;;;;;;2.20;2.00;;;29.80;43.10;;;;;;4998832;28;20192;-74
2022/07/30 08:53:34;;;;;;;2.63;2.42;;;29.80;43.10;;;;;;5012876;28;20208;-74
2022/07/30 08:56:02;;;;;;;2.20;2.00;;;29.80;43.00;;;;;;4998390;28;20223;-74
2022/07/30 08:58:33;;;;;;;2.42;2.22;;;29.80;43.50;;;;;;4998012;28;20196;-74
2022/07/30 09:01:00;;;;;;;2.90;2.17;;;29.90;43.40;;;;;;4998512;28;20204;-73
2022/07/30 09:03:29;;;;;;;2.20;2.00;;;29.90;43.30;;;;;;4997867;28;20201;-73
2022/07/30 09:06:00;;;;;;;2.72;2.40;;;29.90;42.60;;;;;;4997931;28;20224;-73
2022/07/30 09:08:27;;;;;;;2.10;1.90;;;30.00;42.70;;;;;;4981815;28;20196;-73
2022/07/30 09:10:55;;;;;;;2.45;2.25;;;30.00;42.60;;;;;;4997515;28;20250;-74
2022/07/30 09:13:26;;;;;;;2.35;2.15;;;30.00;43.20;;;;;;4997619;28;20202;-73
2022/07/30 09:15:54;;;;;;;2.38;2.17;;;30.00;42.60;;;;;;4997250;28;20212;-73
2022/07/30 09:18:30;;;;;;;2.22;2.05;;;30.00;42.60;;;;;;4998315;28;20200;-73
2022/07/30 09:20:59;;;;;;;2.38;2.17;;;30.00;42.60;;;;;;4998199;28;20191;-74
2022/07/30 09:23:26;;;;;;;2.50;2.30;;;30.00;42.60;;;;;;4998117;28;20697;-73
2022/07/30 09:26:12;;;;;;;2.30;2.00;;;30.00;42.50;;;;;;5014959;28;20717;-74
2022/07/30 09:28:45;;;;;;;2.10;2.00;;;30.00;42.50;;;;;;5015027;28;20549;-73
2022/07/30 09:31:55;;;;;;;2.13;2.00;;;30.00;42.50;;;;;;5014494;28;20550;-73
2022/07/30 09:34:52;;;;;;;2.03;1.90;;;29.90;42.70;;;;;;4997246;28;20204;-74
2022/07/30 09:37:37;;;;;;;2.25;2.05;;;29.90;42.80;;;;;;5014549;28;20218;-74
2022/07/30 09:40:34;;;;;;;2.20;1.92;;;29.80;42.70;;;;;;4997127;28;20567;-74
2022/07/30 09:43:20;;;;;;;2.10;2.00;;;29.90;42.80;;;;;;5014545;28;20187;-74
2022/07/30 09:45:51;;;;;;;1.90;1.80;;;29.70;42.90;;;;;;4995927;28;20266;-73
2022/07/30 09:48:23;;;;;;;3.63;2.25;;;29.70;43.00;;;;;;4997085;28;20291;-73
2022/07/30 09:50:50;;;;;;;2.08;1.98;;;29.50;43.40;;;;;;4996993;28;20202;-73
2022/07/30 09:53:17;;;;;;;2.72;2.10;;;29.40;43.30;;;;;;4996655;28;20200;-74
2022/07/30 09:55:44;;;;;;;2.15;2.05;;;29.30;43.70;;;;;;4996664;28;20310;-74
2022/07/30 09:58:13;;;;;;;2.22;2.03;;;29.20;43.90;;;;;;4996937;28;20678;-74
2022/07/30 10:00:40;;;;;;;2.20;2.00;;;29.20;44.10;;;;;;4996915;28;20207;-74
2022/07/30 10:03:25;;;;;;;2.05;1.95;;;29.10;44.10;;;;;;4997420;28;20527;-74
2022/07/30 10:06:11;;;;;;;1.95;1.85;;;29.10;44.10;;;;;;5013973;28;20789;-74
2022/07/30 10:08:44;;;;;;;2.25;2.10;;;29.20;44.00;;;;;;4996544;28;20211;-73
2022/07/30 10:11:12;;;;;;;2.28;2.08;;;29.20;44.10;;;;;;4996566;28;20200;-74
2022/07/30 10:13:40;;;;;;;2.10;2.00;;;29.10;44.20;;;;;;5014319;28;20199;-74
2022/07/30 10:16:06;;;;;;;2.05;1.90;;;29.00;44.30;;;;;;4996501;28;20244;-73
2022/07/30 10:18:35;;;;;;;2.40;2.20;;;29.00;44.50;;;;;;4996381;28;20666;-73
2022/07/30 10:21:32;;;;;;;1.90;1.80;;;29.00;44.50;;;;;;5004910;28;20278;-74
2022/07/30 10:24:11;;;;;;;2.05;1.95;;;29.00;44.40;;;;;;5014361;28;20227;-74
2022/07/30 10:26:56;;;;;;;2.20;2.00;;;29.00;44.30;;;;;;5014103;28;20223;-73
2022/07/30 10:29:42;;;;;;;1.98;1.88;;;29.00;44.20;;;;;;4996394;28;20191;-74
2022/07/30 10:32:09;;;;;;;1.90;1.80;;;29.00;44.40;;;;;;4996323;28;20195;-73
2022/07/30 10:34:38;;;;;;;2.00;1.80;;;28.90;44.40;;;;;;4996199;28;20196;-74
2022/07/30 10:37:05;;;;;;;2.05;1.95;;;29.00;44.50;;;;;;4996770;28;20217;-74
2022/07/30 10:39:34;;;;;;;2.10;2.00;;;29.00;44.50;;;;;;4996430;28;20204;-73
2022/07/30 10:42:06;;;;;;;2.20;2.00;;;29.00;44.50;;;;;;4997607;28;20208;-73
2022/07/30 10:44:56;;;;;;;2.83;2.10;;;29.00;44.40;;;;;;4998646;28;20276;-73
2022/07/30 10:47:24;;;;;;;1.90;1.80;;;28.90;44.40;;;;;;4998410;28;20216;-74
2022/07/30 10:50:11;;;;;;;2.00;1.80;;;28.90;44.40;;;;;;4996840;28;20192;-73
2022/07/30 10:52:51;;;;;;;2.00;1.80;;;29.00;44.70;;;;;;5014468;28;20207;-74
2022/07/30 10:55:19;;;;;;;1.98;1.85;;;28.90;44.70;;;;;;4996340;28;20262;-73
2022/07/30 10:58:04;;;;;;;1.95;1.85;;;28.90;44.80;;;;;;5000408;28;20236;-73
2022/07/30 11:00:31;;;;;;;2.03;1.92;;;28.90;44.90;;;;;;5000205;28;20203;-73
2022/07/30 11:03:22;;;;;;;1.90;1.80;;;28.90;44.90;;;;;;5017211;28;20227;-74
2022/07/30 11:05:51;;;;;;;1.90;1.80;;;28.80;44.90;;;;;;4999725;28;20273;-74
2022/07/30 11:08:35;;;;;;;2.15;1.95;;;28.80;44.90;;;;;;4999616;28;20244;-73
2022/07/30 11:11:02;;;;;;;2.25;2.08;;;28.90;45.10;;;;;;4999532;28;20266;-73
2022/07/30 11:13:51;;;;;;;1.83;1.73;;;28.80;44.90;;;;;;4999411;28;20196;-73
2022/07/30 11:16:19;;;;;;;1.90;1.80;;;28.80;45.10;;;;;;4999589;28;20294;-73
2022/07/30 11:19:19;;;;;;;1.77;1.67;;;28.70;45.20;;;;;;4999469;28;20192;-74
2022/07/30 11:21:47;;;;;;;2.15;2.03;;;28.70;45.20;;;;;;4921858;29;20222;-72
2022/07/30 11:24:42;;;;;;;2.17;2.00;;;28.60;45.20;;;;;;4983379;28;20216;-73
2022/07/30 11:27:08;;;;;;;1.90;1.80;;;28.60;45.30;;;;;;4999026;28;20224;-73
2022/07/30 11:29:39;;;;;;;2.10;2.00;;;28.60;45.40;;;;;;5017167;28;20227;-73
2022/07/30 11:32:26;;;;;;;1.83;1.73;;;28.60;45.50;;;;;;4999358;28;20227;-74
2022/07/30 11:35:10;;;;;;;2.03;1.92;;;28.60;45.50;;;;;;4982931;28;20197;-73
2022/07/30 11:37:57;;;;;;;1.90;1.80;;;28.50;45.50;;;;;;4999219;28;20237;-74
2022/07/30 11:40:24;;;;;;;1.90;1.80;;;28.50;45.60;;;;;;4999043;28;20698;-75
2022/07/30 11:42:51;;;;;;;1.98;1.85;;;28.50;45.70;;;;;;4999127;28;20239;-74
2022/07/30 11:45:25;;;;;;;1.95;1.85;;;28.50;45.70;;;;;;4999069;28;20199;-74
2022/07/30 11:47:53;;;;;;;1.92;1.83;;;28.50;45.90;;;;;;4999206;28;20212;-74
2022/07/30 11:50:21;;;;;;;1.95;1.85;;;28.50;45.90;;;;;;4998972;28;20208;-74
2022/07/30 11:52:49;;;;;;;1.73;1.63;;;28.50;45.90;;;;;;4998873;28;20255;-75
2022/07/30 11:55:24;;;;;;;2.20;2.08;;;28.50;45.90;;;;;;4998712;28;20290;-74
2022/07/30 11:57:51;;;;;;;1.90;1.80;;;28.50;46.00;;;;;;4999098;28;20195;-74
2022/07/30 12:00:18;;;;;;;1.90;1.80;;;28.40;46.00;;;;;;4998985;28;20204;-74
2022/07/30 12:02:45;;;;;;;1.80;1.70;;;28.40;46.10;;;;;;4999385;28;20204;-73
2022/07/30 12:05:12;;;;;;;2.00;1.90;;;28.40;46.00;;;;;;4999120;28;20208;-74
2022/07/30 12:07:39;;;;;;;1.75;1.65;;;28.40;46.10;;;;;;4998305;28;20255;-75
2022/07/30 12:10:14;;;;;;;1.80;1.70;;;28.40;46.10;;;;;;4998665;28;20207;-73
2022/07/30 12:12:42;;;;;;;1.92;1.83;;;28.40;46.10;;;;;;4998543;28;20195;-74
2022/07/30 12:15:10;;;;;;;1.83;1.73;;;28.40;46.20;;;;;;4998612;28;20202;-74
2022/07/30 12:17:41;;;;;;;1.92;1.83;;;28.40;46.20;;;;;;4998562;28;20577;-74
2022/07/30 12:20:15;;;;;;;1.60;1.50;;;28.30;46.20;;;;;;4998571;28;20274;-74
2022/07/30 12:22:42;;;;;;;1.90;1.80;;;28.30;46.20;;;;;;4998402;28;20188;-73
2022/07/30 12:25:10;;;;;;;1.90;1.80;;;28.40;46.30;;;;;;4998297;28;20569;-74
2022/07/30 12:27:37;;;;;;;2.00;1.90;;;28.30;46.30;;;;;;4982207;28;20244;-74
2022/07/30 12:30:06;;;;;;;1.80;1.70;;;28.30;46.40;;;;;;4998304;28;20274;-74
2022/07/30 12:32:33;;;;;;;1.90;1.80;;;28.30;46.40;;;;;;4998277;28;20200;-74
2022/07/30 12:35:00;;;;;;;1.85;1.75;;;28.30;46.40;;;;;;5015793;28;20640;-74
2022/07/30 12:37:27;;;;;;;1.75;1.65;;;28.30;46.50;;;;;;4998154;28;20220;-74
2022/07/30 12:40:06;;;;;;;2.00;1.90;;;28.30;46.50;;;;;;4998723;28;20207;-74
2022/07/30 12:42:33;;;;;;;1.73;1.63;;;28.20;46.40;;;;;;4997929;28;20210;-74
2022/07/30 12:45:00;;;;;;;2.00;1.90;;;28.20;46.50;;;;;;4998116;28;20202;-74
2022/07/30 12:47:29;;;;;;;1.60;1.50;;;28.20;46.50;;;;;;4997766;28;20745;-74
2022/07/30 12:49:56;;;;;;;1.85;1.70;;;28.20;46.50;;;;;;4997893;28;20196;-74
2022/07/30 12:52:25;;;;;;;1.70;1.60;;;28.20;46.50;;;;;;4998005;28;20196;-74
2022/07/30 12:55:01;;;;;;;1.90;1.80;;;28.20;46.50;;;;;;4997738;28;20208;-75
2022/07/30 12:57:29;;;;;;;1.80;1.70;;;28.20;46.50;;;;;;4998277;28;20224;-74
2022/07/30 13:00:03;;;;;;;2.00;1.90;;;28.20;46.30;;;;;;5015379;28;20234;-74
2022/07/30 13:02:35;;;;;;;2.05;1.95;;;28.30;46.60;;;;;;4998549;28;20195;-75
2022/07/30 13:05:02;;;;;;;1.77;1.67;;;28.20;46.60;;;;;;5015248;28;20196;-75
2022/07/30 13:07:31;;;;;;;2.00;1.90;;;28.20;46.60;;;;;;5014837;28;20208;-74
2022/07/30 13:10:08;;;;;;;2.10;1.90;;;28.20;46.60;;;;;;5014913;28;20211;-74
2022/07/30 13:12:34;;;;;;;1.75;1.65;;;28.20;46.60;;;;;;4997351;28;20207;-75
2022/07/30 13:15:02;;;;;;;1.77;1.67;;;28.20;46.70;;;;;;4997308;28;20228;-74